Time;durP1;ratioP1;P1;durP2;ratioP2;P2;SDS_P1;SDS_P2;PMS_P1;PMS_P2;Temp;Humidity;BMP_temperature;BMP_pressure;BME280_temperature;BME280_humidity;BME280_pressure;Samples;Min_cycle;Max_cycle;Signal;HPM_P1;HPM_P2
2023/10/01 00:00:09;;;;;;;56.70;2.73;;;;;;;;;;5152435;27;20467;-69
2023/10/01 00:02:36;;;;;;;56.93;2.80;;;;;;;;;;5152526;27;20440;-69
2023/10/01 00:05:04;;;;;;;57.07;2.83;;;;;;;;;;5152397;27;20444;-69
2023/10/01 00:07:37;;;;;;;57.23;3.30;;;;;;;;;;5152060;27;20513;-69
2023/10/01 00:10:09;;;;;;;56.87;2.80;;;;;;;;;;5152232;27;20504;-68
2023/10/01 00:12:37;;;;;;;57.30;3.33;;;;;;;;;;5152430;27;20781;-69
2023/10/01 00:15:06;;;;;;;60.50;3.03;;;;;;;;;;5152437;27;20531;-69
2023/10/01 00:17:33;;;;;;;57.37;2.77;;;;;;;;;;5152074;27;20856;-69
2023/10/01 00:20:03;;;;;;;56.40;2.90;;;;;;;;;;5152087;27;20444;-69
2023/10/01 00:22:33;;;;;;;56.67;2.30;;;;;;;;;;5152032;27;20939;-68
2023/10/01 00:25:00;;;;;;;56.83;3.20;;;;;;;;;;5151952;27;20461;-69
2023/10/01 00:27:27;;;;;;;57.20;2.80;;;;;;;;;;5151945;27;20462;-68
2023/10/01 00:29:54;;;;;;;56.53;2.47;;;;;;;;;;5152185;27;20447;-69
2023/10/01 00:32:23;;;;;;;59.40;3.50;;;;;;;;;;5152245;27;20450;-69
2023/10/01 00:34:50;;;;;;;57.40;3.37;;;;;;;;;;5151970;27;20530;-68
2023/10/01 00:37:17;;;;;;;56.67;2.60;;;;;;;;;;5151778;27;20480;-68
2023/10/01 00:39:44;;;;;;;57.77;3.13;;;;;;;;;;5151941;27;20958;-69
2023/10/01 00:42:11;;;;;;;57.63;3.73;;;;;;;;;;5152166;27;20451;-69
2023/10/01 00:44:39;;;;;;;58.80;3.70;;;;;;;;;;5151992;27;20450;-69
2023/10/01 00:47:06;;;;;;;56.97;2.50;;;;;;;;;;5152087;27;20452;-69
2023/10/01 00:49:39;;;;;;;56.90;3.07;;;;;;;;;;5151935;27;20502;-69
2023/10/01 00:52:10;;;;;;;56.70;2.83;;;;;;;;;;5151973;27;20448;-69
2023/10/01 00:54:37;;;;;;;57.40;4.47;;;;;;;;;;5151702;27;20943;-69
2023/10/01 00:57:04;;;;;;;58.53;2.80;;;;;;;;;;5152065;27;20526;-69
2023/10/01 00:59:33;;;;;;;57.00;2.97;;;;;;;;;;5151845;27;20458;-69
2023/10/01 01:02:00;;;;;;;57.17;2.70;;;;;;;;;;5155488;27;20486;-69
2023/10/01 01:04:29;;;;;;;57.37;2.93;;;;;;;;;;5155026;27;20439;-69
2023/10/01 01:07:02;;;;;;;56.57;2.50;;;;;;;;;;5156090;27;20455;-69
2023/10/01 01:09:29;;;;;;;55.97;2.40;;;;;;;;;;5156544;27;20463;-68
2023/10/01 01:11:57;;;;;;;56.80;2.70;;;;;;;;;;5155679;27;20520;-68
2023/10/01 01:14:26;;;;;;;56.67;3.33;;;;;;;;;;5155374;27;20444;-68
2023/10/01 01:16:53;;;;;;;57.30;4.40;;;;;;;;;;5155165;27;20530;-68
2023/10/01 01:19:20;;;;;;;56.97;3.07;;;;;;;;;;5137065;27;20492;-68
2023/10/01 01:21:47;;;;;;;57.03;2.90;;;;;;;;;;5143346;27;20437;-68
2023/10/01 01:24:16;;;;;;;57.47;3.20;;;;;;;;;;5143256;27;20463;-68
2023/10/01 01:26:43;;;;;;;56.60;2.70;;;;;;;;;;5134249;27;20456;-68
2023/10/01 01:29:18;;;;;;;59.87;3.10;;;;;;;;;;5140549;27;20831;-69
2023/10/01 01:31:46;;;;;;;56.47;2.40;;;;;;;;;;5135141;27;20942;-69
2023/10/01 01:34:14;;;;;;;57.20;2.67;;;;;;;;;;5134331;27;20488;-69
2023/10/01 01:36:42;;;;;;;56.57;2.60;;;;;;;;;;5134071;27;20859;-69
2023/10/01 01:39:26;;;;;;;59.30;3.70;;;;;;;;;;5134123;27;20898;-69
2023/10/01 01:41:54;;;;;;;56.10;2.40;;;;;;;;;;5134535;27;20448;-69
2023/10/01 01:44:23;;;;;;;56.63;2.33;;;;;;;;;;5134066;27;20447;-69
2023/10/01 01:46:59;;;;;;;57.07;2.90;;;;;;;;;;5134433;27;20445;-69
2023/10/01 01:52:08;;;;;;;56.87;2.63;;;;;;;;;;5090197;28;20981;-69
2023/10/01 01:54:39;;;;;;;56.57;3.50;;;;;;;;;;5090453;28;20451;-69
2023/10/01 01:57:13;;;;;;;56.50;2.57;;;;;;;;;;5093972;28;20454;-69
2023/10/01 01:59:41;;;;;;;57.43;3.40;;;;;;;;;;5098615;28;20431;-69
2023/10/01 02:02:09;;;;;;;56.80;2.87;;;;;;;;;;5090448;28;20469;-69
2023/10/01 02:04:58;;;;;;;57.87;2.77;;;;;;;;;;5090332;28;20445;-69
2023/10/01 02:07:24;;;;;;;58.17;2.50;;;;;;;;;;5089787;28;20859;-69
2023/10/01 02:09:51;;;;;;;56.97;2.73;;;;;;;;;;5090147;28;20435;-69
2023/10/01 02:12:24;;;;;;;56.67;2.50;;;;;;;;;;5090045;28;20486;-69
2023/10/01 02:14:54;;;;;;;57.47;3.17;;;;;;;;;;5089922;28;20468;-69
2023/10/01 02:17:25;;;;;;;56.47;2.60;;;;;;;;;;5089627;28;20466;-69
2023/10/01 02:19:55;;;;;;;56.77;2.70;;;;;;;;;;5089364;28;20452;-69
2023/10/01 02:22:24;;;;;;;58.07;3.17;;;;;;;;;;5100422;27;20453;-68
2023/10/01 02:24:55;;;;;;;57.60;3.93;;;;;;;;;;5133155;27;20447;-69
2023/10/01 02:27:28;;;;;;;57.53;3.57;;;;;;;;;;5132937;27;20465;-69
2023/10/01 02:30:13;;;;;;;56.97;2.53;;;;;;;;;;5132850;27;20983;-69
2023/10/01 02:32:49;;;;;;;57.10;3.00;;;;;;;;;;5132856;27;20936;-69
2023/10/01 02:38:00;;;;;;;56.80;2.70;;;;;;;;;;5132226;27;20805;-69
2023/10/01 02:40:30;;;;;;;56.77;2.60;;;;;;;;;;5132723;27;20449;-68
2023/10/01 02:43:03;;;;;;;56.70;2.40;;;;;;;;;;5132701;27;21004;-68
2023/10/01 02:45:33;;;;;;;56.37;2.70;;;;;;;;;;5132815;27;20444;-68
2023/10/01 02:48:16;;;;;;;56.57;3.03;;;;;;;;;;5132558;27;20460;-69
2023/10/01 02:50:45;;;;;;;56.67;2.97;;;;;;;;;;5132624;27;20535;-68
2023/10/01 02:53:13;;;;;;;56.33;2.43;;;;;;;;;;5133040;27;20491;-68
2023/10/01 02:55:44;;;;;;;57.30;3.63;;;;;;;;;;5132506;27;20514;-68
2023/10/01 02:58:20;;;;;;;56.80;2.73;;;;;;;;;;5132347;27;20992;-68
2023/10/01 03:00:50;;;;;;;58.60;4.50;;;;;;;;;;5132091;27;20497;-68
2023/10/01 03:03:18;;;;;;;56.17;2.90;;;;;;;;;;5132746;27;20512;-68
2023/10/01 03:05:46;;;;;;;56.93;2.60;;;;;;;;;;5132535;27;20448;-68
2023/10/01 03:08:40;;;;;;;56.40;2.60;;;;;;;;;;5132287;27;20503;-68
2023/10/01 03:11:06;;;;;;;56.80;2.70;;;;;;;;;;5131957;27;20936;-69
2023/10/01 03:13:36;;;;;;;56.53;2.67;;;;;;;;;;5132414;27;20527;-69
2023/10/01 03:18:54;;;;;;;56.57;2.67;;;;;;;;;;5123175;27;20483;-70
2023/10/01 03:22:12;;;;;;;55.97;2.63;;;;;;;;;;5138069;27;20459;-69
2023/10/01 03:24:13;;;;;;;56.57;2.40;;;;;;;;;;5125200;27;20440;-69
2023/10/01 03:26:44;;;;;;;57.10;3.13;;;;;;;;;;5132302;27;20445;-69
2023/10/01 03:29:19;;;;;;;56.63;2.53;;;;;;;;;;5137448;27;20778;-70
2023/10/01 03:31:46;;;;;;;56.60;3.50;;;;;;;;;;5143611;27;20443;-69
2023/10/01 03:34:28;;;;;;;57.77;3.17;;;;;;;;;;5153064;27;20485;-67
2023/10/01 03:36:58;;;;;;;59.37;2.80;;;;;;;;;;5152615;27;20432;-70
2023/10/01 03:39:26;;;;;;;56.60;2.50;;;;;;;;;;5152698;27;20479;-70
2023/10/01 03:42:10;;;;;;;56.70;2.40;;;;;;;;;;5148367;27;20444;-69
2023/10/01 03:47:23;;;;;;;56.90;3.00;;;;;;;;;;5131553;27;20449;-69
2023/10/01 03:49:54;;;;;;;56.20;2.77;;;;;;;;;;5134225;27;20452;-68
2023/10/01 03:52:21;;;;;;;56.40;2.40;;;;;;;;;;5152536;27;20443;-69
2023/10/01 03:55:00;;;;;;;56.63;2.80;;;;;;;;;;5152184;27;20440;-69
2023/10/01 03:57:29;;;;;;;56.60;2.40;;;;;;;;;;5152690;27;20471;-70
2023/10/01 04:00:08;;;;;;;56.80;3.67;;;;;;;;;;5151790;27;20487;-70
2023/10/01 04:02:46;;;;;;;56.27;2.70;;;;;;;;;;5152429;27;20451;-69
2023/10/01 04:05:22;;;;;;;55.93;2.30;;;;;;;;;;5152188;27;20443;-67
2023/10/01 04:07:49;;;;;;;58.00;2.63;;;;;;;;;;5152443;27;20819;-69
2023/10/01 04:10:21;;;;;;;55.93;2.40;;;;;;;;;;5152135;27;20447;-69
2023/10/01 04:12:54;;;;;;;56.07;2.27;;;;;;;;;;5152054;27;20448;-69
2023/10/01 04:15:29;;;;;;;56.17;3.13;;;;;;;;;;5152334;27;20454;-69
2023/10/01 04:18:21;;;;;;;57.17;2.63;;;;;;;;;;5152274;27;20465;-69
2023/10/01 04:20:49;;;;;;;60.60;2.70;;;;;;;;;;5151823;27;20444;-69
2023/10/01 04:23:23;;;;;;;56.50;2.57;;;;;;;;;;5152030;27;20509;-68
2023/10/01 04:25:51;;;;;;;56.50;2.70;;;;;;;;;;5152306;27;20505;-68
2023/10/01 04:28:19;;;;;;;57.30;2.60;;;;;;;;;;5152042;27;20463;-69
2023/10/01 04:30:51;;;;;;;56.77;2.70;;;;;;;;;;5152040;27;20509;-68
2023/10/01 04:33:18;;;;;;;56.43;2.20;;;;;;;;;;5152224;27;20452;-68
2023/10/01 04:35:51;;;;;;;56.73;3.00;;;;;;;;;;5153556;27;20499;-68
2023/10/01 04:38:19;;;;;;;56.10;2.40;;;;;;;;;;5155990;27;20832;-68
2023/10/01 04:40:48;;;;;;;56.60;2.60;;;;;;;;;;5155704;27;20447;-69
2023/10/01 04:43:19;;;;;;;55.87;2.20;;;;;;;;;;5156312;27;20792;-69
2023/10/01 04:45:47;;;;;;;56.40;2.80;;;;;;;;;;5155827;27;20444;-68
2023/10/01 04:48:16;;;;;;;56.40;2.60;;;;;;;;;;5155619;27;20987;-68
2023/10/01 04:50:44;;;;;;;57.20;3.70;;;;;;;;;;5155335;27;20957;-68
2023/10/01 04:53:13;;;;;;;57.20;3.07;;;;;;;;;;5155828;27;20475;-68
2023/10/01 04:55:42;;;;;;;56.87;2.97;;;;;;;;;;5155978;27;20496;-68
2023/10/01 04:58:12;;;;;;;56.43;2.33;;;;;;;;;;5155687;27;20801;-69
2023/10/01 05:00:39;;;;;;;56.63;2.40;;;;;;;;;;5155385;27;20483;-69
2023/10/01 05:03:10;;;;;;;56.37;2.50;;;;;;;;;;5155721;27;20451;-69
2023/10/01 05:05:37;;;;;;;57.77;2.57;;;;;;;;;;5155041;27;20690;-68
2023/10/01 05:08:05;;;;;;;57.10;3.20;;;;;;;;;;5155369;27;20475;-69
2023/10/01 05:10:50;;;;;;;62.97;2.40;;;;;;;;;;5155231;27;20466;-69
2023/10/01 05:13:20;;;;;;;56.43;2.80;;;;;;;;;;5155548;27;20475;-69
2023/10/01 05:15:49;;;;;;;57.80;2.90;;;;;;;;;;5155328;27;20443;-69
2023/10/01 05:18:17;;;;;;;56.47;2.40;;;;;;;;;;5147979;27;20992;-69
2023/10/01 05:20:48;;;;;;;58.30;3.00;;;;;;;;;;5143741;27;20936;-69
2023/10/01 05:23:15;;;;;;;56.70;2.60;;;;;;;;;;5146535;27;20740;-68
2023/10/01 05:25:45;;;;;;;57.93;3.97;;;;;;;;;;5155253;27;20440;-68
2023/10/01 05:28:23;;;;;;;57.10;2.83;;;;;;;;;;5144538;27;20465;-69
2023/10/01 05:30:56;;;;;;;57.90;3.27;;;;;;;;;;5153101;27;20500;-69
2023/10/01 05:33:25;;;;;;;58.27;3.13;;;;;;;;;;5154775;27;21225;-69
2023/10/01 05:35:57;;;;;;;56.33;2.50;;;;;;;;;;5155174;27;20962;-69
2023/10/01 05:38:26;;;;;;;56.30;2.37;;;;;;;;;;5149771;27;20889;-69
2023/10/01 05:40:54;;;;;;;56.70;2.37;;;;;;;;;;5135272;27;20939;-69
2023/10/01 05:43:27;;;;;;;56.67;2.20;;;;;;;;;;5134235;27;20451;-69
2023/10/01 05:45:54;;;;;;;56.83;2.93;;;;;;;;;;5133803;27;20456;-69
2023/10/01 05:48:23;;;;;;;56.80;2.70;;;;;;;;;;5133958;27;20471;-69
2023/10/01 05:50:52;;;;;;;56.37;2.33;;;;;;;;;;5133385;27;20936;-69
2023/10/01 05:53:19;;;;;;;58.83;3.07;;;;;;;;;;5142502;27;20455;-69
2023/10/01 05:55:46;;;;;;;55.97;2.43;;;;;;;;;;5151691;27;20454;-69
2023/10/01 05:58:21;;;;;;;56.70;2.80;;;;;;;;;;5154634;27;20556;-69
2023/10/01 06:00:56;;;;;;;57.37;3.47;;;;;;;;;;5154491;27;20528;-69
2023/10/01 06:03:24;;;;;;;56.37;2.40;;;;;;;;;;5154636;27;21053;-69
2023/10/01 06:05:57;;;;;;;55.97;2.37;;;;;;;;;;5154258;27;20448;-69
2023/10/01 06:08:25;;;;;;;56.60;2.70;;;;;;;;;;5154432;27;20510;-69
2023/10/01 06:11:06;;;;;;;56.37;2.50;;;;;;;;;;5154130;27;20465;-69
2023/10/01 06:13:35;;;;;;;56.57;2.50;;;;;;;;;;5154323;27;20546;-69
2023/10/01 06:16:11;;;;;;;57.10;2.77;;;;;;;;;;5153905;27;20444;-68
2023/10/01 06:18:41;;;;;;;57.20;2.70;;;;;;;;;;5153801;27;20842;-69
2023/10/01 06:21:10;;;;;;;56.57;2.90;;;;;;;;;;5153613;27;20444;-69
2023/10/01 06:23:49;;;;;;;56.40;2.80;;;;;;;;;;5153834;27;20492;-69
2023/10/01 06:26:16;;;;;;;56.17;2.33;;;;;;;;;;5153935;27;20447;-69
2023/10/01 06:28:43;;;;;;;56.77;2.60;;;;;;;;;;5153548;27;20462;-69
2023/10/01 06:31:11;;;;;;;56.40;2.40;;;;;;;;;;5153751;27;20798;-69
2023/10/01 06:33:38;;;;;;;63.13;2.80;;;;;;;;;;5153401;27;20837;-69
2023/10/01 06:36:19;;;;;;;56.87;3.20;;;;;;;;;;5153753;27;20447;-69
2023/10/01 06:38:48;;;;;;;56.60;2.60;;;;;;;;;;5153477;27;20523;-69
2023/10/01 06:41:18;;;;;;;56.77;2.50;;;;;;;;;;5153533;27;20450;-69
2023/10/01 06:43:49;;;;;;;56.50;2.10;;;;;;;;;;5153490;27;20878;-69
2023/10/01 06:46:19;;;;;;;56.17;2.17;;;;;;;;;;5154003;27;20444;-69
2023/10/01 06:48:47;;;;;;;56.07;2.30;;;;;;;;;;5143733;27;20480;-69
2023/10/01 06:51:15;;;;;;;57.00;3.10;;;;;;;;;;5127137;27;20463;-69
2023/10/01 06:53:45;;;;;;;56.97;2.50;;;;;;;;;;5132677;27;20444;-69
2023/10/01 06:56:17;;;;;;;56.70;2.70;;;;;;;;;;5132608;27;20451;-69
2023/10/01 06:59:12;;;;;;;61.87;4.10;;;;;;;;;;5131338;27;20522;-69
2023/10/01 07:01:35;;;;;;;57.03;2.80;;;;;;;;;;5126325;27;20853;-70
2023/10/01 07:04:03;;;;;;;56.33;2.10;;;;;;;;;;5132327;27;20451;-69
2023/10/01 07:06:30;;;;;;;56.30;2.43;;;;;;;;;;5132468;27;20452;-69
2023/10/01 07:09:00;;;;;;;56.57;2.43;;;;;;;;;;5132426;27;20469;-69
2023/10/01 07:11:28;;;;;;;57.73;4.20;;;;;;;;;;5132242;27;20457;-69
2023/10/01 07:13:56;;;;;;;56.37;2.50;;;;;;;;;;5132643;27;20447;-71
2023/10/01 07:16:36;;;;;;;56.80;2.63;;;;;;;;;;5130152;27;20444;-69
2023/10/01 07:19:05;;;;;;;56.60;2.90;;;;;;;;;;5126395;27;20539;-68
2023/10/01 07:21:33;;;;;;;56.60;2.60;;;;;;;;;;5139948;27;20450;-70
2023/10/01 07:24:00;;;;;;;56.57;3.00;;;;;;;;;;5135347;27;20967;-69
2023/10/01 07:26:30;;;;;;;56.70;2.70;;;;;;;;;;5140820;27;20832;-69
2023/10/01 07:28:57;;;;;;;58.60;3.00;;;;;;;;;;5144088;27;20471;-70
2023/10/01 07:31:25;;;;;;;58.50;4.30;;;;;;;;;;5152647;27;20436;-70
2023/10/01 07:33:54;;;;;;;56.50;2.80;;;;;;;;;;5145988;27;20436;-70
2023/10/01 07:36:23;;;;;;;56.50;2.50;;;;;;;;;;5146047;27;20440;-70
2023/10/01 07:38:52;;;;;;;56.33;2.50;;;;;;;;;;5152605;27;20463;-71
2023/10/01 07:41:23;;;;;;;56.40;2.40;;;;;;;;;;5152566;27;20567;-72
2023/10/01 07:43:53;;;;;;;57.00;2.87;;;;;;;;;;5143551;27;20453;-71
2023/10/01 07:46:21;;;;;;;56.50;2.80;;;;;;;;;;5132273;27;20449;-70
2023/10/01 07:48:49;;;;;;;57.37;3.83;;;;;;;;;;5131716;27;20465;-71
2023/10/01 07:51:27;;;;;;;57.77;4.70;;;;;;;;;;5144329;27;20448;-71
2023/10/01 07:53:56;;;;;;;56.43;2.50;;;;;;;;;;5152385;27;20500;-73
2023/10/01 07:56:25;;;;;;;56.87;3.23;;;;;;;;;;5140369;27;20449;-72
2023/10/01 07:59:16;;;;;;;56.60;2.70;;;;;;;;;;5130849;27;20571;-71
2023/10/01 08:01:45;;;;;;;56.60;2.50;;;;;;;;;;5131350;27;20433;-72
2023/10/01 08:04:50;;;;;;;57.20;2.90;;;;;;;;;;5131309;27;20452;-70
2023/10/01 08:07:05;;;;;;;56.90;2.80;;;;;;;;;;5131237;28;20507;-69
2023/10/01 08:09:33;;;;;;;58.30;4.07;;;;;;;;;;5132603;27;20452;-70
2023/10/01 08:12:05;;;;;;;56.67;3.07;;;;;;;;;;5135628;27;20943;-69
2023/10/01 08:14:33;;;;;;;56.20;2.43;;;;;;;;;;5136230;27;20891;-69
2023/10/01 08:17:00;;;;;;;57.53;3.13;;;;;;;;;;5135667;27;20440;-70
2023/10/01 08:19:44;;;;;;;56.57;3.07;;;;;;;;;;5135327;27;20492;-69
2023/10/01 08:22:14;;;;;;;57.33;2.87;;;;;;;;;;5135767;27;20463;-70
2023/10/01 08:24:45;;;;;;;56.57;2.53;;;;;;;;;;5135852;27;20472;-69
2023/10/01 08:27:14;;;;;;;56.43;2.40;;;;;;;;;;5135606;27;20939;-70
2023/10/01 08:32:39;;;;;;;57.50;4.70;;;;;;;;;;5098106;27;20433;-70
2023/10/01 08:35:06;;;;;;;56.40;3.13;;;;;;;;;;5135596;27;20440;-68
2023/10/01 08:37:37;;;;;;;56.97;3.20;;;;;;;;;;5135472;27;20464;-69
2023/10/01 08:40:03;;;;;;;56.60;3.00;;;;;;;;;;5135186;27;20488;-69
2023/10/01 08:42:30;;;;;;;59.27;3.67;;;;;;;;;;5135647;27;20579;-69
2023/10/01 08:45:03;;;;;;;57.37;2.80;;;;;;;;;;5135299;27;20447;-67
2023/10/01 08:47:38;;;;;;;57.07;2.77;;;;;;;;;;5141328;27;20467;-68
2023/10/01 08:52:56;;;;;;;57.10;3.50;;;;;;;;;;5155859;27;20931;-68
2023/10/01 08:55:24;;;;;;;57.97;3.00;;;;;;;;;;5155888;27;20510;-68
2023/10/01 08:57:53;;;;;;;59.73;3.23;;;;;;;;;;5155651;27;20466;-68
2023/10/01 09:00:24;;;;;;;56.60;2.50;;;;;;;;;;5155479;27;20482;-68
2023/10/01 09:02:51;;;;;;;56.80;2.77;;;;;;;;;;5155643;27;20451;-68
2023/10/01 09:05:24;;;;;;;61.63;3.10;;;;;;;;;;5155438;27;20447;-68
2023/10/01 09:08:14;;;;;;;58.77;2.80;;;;;;;;;;5155301;27;20459;-68
2023/10/01 09:10:39;;;;;;;59.87;2.70;;;;;;;;;;5155283;27;20439;-68
2023/10/01 09:13:09;;;;;;;61.60;2.60;;;;;;;;;;5155455;27;20466;-68
2023/10/01 09:15:43;;;;;;;58.37;3.13;;;;;;;;;;5155376;27;20547;-68
2023/10/01 09:18:11;;;;;;;58.33;2.90;;;;;;;;;;5152254;27;20459;-69
2023/10/01 09:20:40;;;;;;;56.77;3.10;;;;;;;;;;5140615;27;20516;-68
2023/10/01 09:23:07;;;;;;;57.77;2.80;;;;;;;;;;5143987;27;20443;-68
2023/10/01 09:25:39;;;;;;;57.17;3.73;;;;;;;;;;5145350;27;20460;-69
2023/10/01 09:28:20;;;;;;;56.70;2.50;;;;;;;;;;5144948;27;20469;-69
2023/10/01 09:31:19;;;;;;;60.30;4.00;;;;;;;;;;5155061;27;20436;-69
2023/10/01 09:33:48;;;;;;;58.63;5.10;;;;;;;;;;5155148;27;20444;-69
2023/10/01 09:36:33;;;;;;;57.20;2.77;;;;;;;;;;5129321;27;20476;-70
2023/10/01 09:39:03;;;;;;;56.80;2.40;;;;;;;;;;5144705;27;20471;-68
2023/10/01 09:41:33;;;;;;;57.17;2.53;;;;;;;;;;5148496;27;20536;-69
2023/10/01 09:44:02;;;;;;;57.27;3.00;;;;;;;;;;5154827;27;20448;-69
2023/10/01 09:46:34;;;;;;;56.77;2.63;;;;;;;;;;5155155;27;20454;-69
2023/10/01 09:49:02;;;;;;;56.90;2.80;;;;;;;;;;5154395;27;20464;-67
2023/10/01 09:51:34;;;;;;;57.60;2.50;;;;;;;;;;5154882;27;20452;-69
2023/10/01 09:54:03;;;;;;;57.40;2.70;;;;;;;;;;5154916;27;20439;-68
2023/10/01 09:56:45;;;;;;;56.20;2.40;;;;;;;;;;5154674;27;20454;-67
2023/10/01 09:59:12;;;;;;;56.50;2.57;;;;;;;;;;5154011;27;20490;-70
2023/10/01 10:01:41;;;;;;;56.40;2.20;;;;;;;;;;5154677;27;20576;-69
2023/10/01 10:04:10;;;;;;;58.67;3.33;;;;;;;;;;5154416;27;20448;-68
2023/10/01 10:06:39;;;;;;;55.97;1.70;;;;;;;;;;5154415;27;20500;-68
2023/10/01 10:09:09;;;;;;;57.30;2.30;;;;;;;;;;5154124;27;20997;-69
2023/10/01 10:11:38;;;;;;;56.50;2.60;;;;;;;;;;5154477;27;20815;-69
2023/10/01 10:14:25;;;;;;;56.50;2.40;;;;;;;;;;5154384;27;20448;-69
2023/10/01 10:16:58;;;;;;;56.93;2.10;;;;;;;;;;5154203;27;20448;-68
2023/10/01 10:19:25;;;;;;;56.50;2.43;;;;;;;;;;5153851;27;20463;-69
2023/10/01 10:22:32;;;;;;;55.80;2.30;;;;;;;;;;5154025;27;20480;-69
2023/10/01 10:25:25;;;;;;;56.20;2.30;;;;;;;;;;5154096;27;20448;-69
2023/10/01 10:27:53;;;;;;;57.20;2.20;;;;;;;;;;5139421;27;20472;-69
2023/10/01 10:30:21;;;;;;;56.00;2.40;;;;;;;;;;5154052;27;20432;-67
2023/10/01 10:33:07;;;;;;;55.83;2.30;;;;;;;;;;5152638;27;20436;-69
2023/10/01 10:35:46;;;;;;;56.50;2.80;;;;;;;;;;5153861;27;20860;-69
2023/10/01 10:38:51;;;;;;;57.40;3.10;;;;;;;;;;5153557;27;20557;-69
2023/10/01 10:41:19;;;;;;;55.67;2.30;;;;;;;;;;5153573;27;20500;-68
2023/10/01 10:44:07;;;;;;;57.20;2.47;;;;;;;;;;5153831;27;20547;-67
2023/10/01 10:46:49;;;;;;;55.37;2.50;;;;;;;;;;5153594;27;21065;-69
2023/10/01 10:49:16;;;;;;;57.80;3.37;;;;;;;;;;5152997;27;20470;-68
2023/10/01 10:51:45;;;;;;;56.07;2.10;;;;;;;;;;5153675;27;20475;-69
2023/10/01 10:54:16;;;;;;;56.67;2.80;;;;;;;;;;5153533;27;20531;-69
2023/10/01 10:56:44;;;;;;;57.97;2.93;;;;;;;;;;5153684;27;20780;-69
2023/10/01 10:59:13;;;;;;;56.00;2.30;;;;;;;;;;5153142;27;20873;-69
2023/10/01 11:01:44;;;;;;;55.50;2.00;;;;;;;;;;5153182;27;20467;-70
2023/10/01 11:04:11;;;;;;;57.17;2.67;;;;;;;;;;5153603;27;20447;-69
2023/10/01 11:06:42;;;;;;;56.00;2.77;;;;;;;;;;5153296;27;20454;-69
2023/10/01 11:09:25;;;;;;;57.00;2.40;;;;;;;;;;5153045;27;20475;-68
2023/10/01 11:11:53;;;;;;;55.70;2.63;;;;;;;;;;5153189;27;20436;-69
2023/10/01 11:14:20;;;;;;;55.50;1.93;;;;;;;;;;5152830;27;20526;-69
2023/10/01 11:16:48;;;;;;;56.47;2.70;;;;;;;;;;5153085;27;20452;-69
2023/10/01 11:19:16;;;;;;;55.60;1.93;;;;;;;;;;5137492;27;20474;-69
2023/10/01 11:22:01;;;;;;;56.20;2.47;;;;;;;;;;5138918;27;20480;-69
2023/10/01 11:24:30;;;;;;;55.80;2.30;;;;;;;;;;5124769;27;20448;-69
2023/10/01 11:27:17;;;;;;;55.57;2.27;;;;;;;;;;5140704;27;20535;-68
2023/10/01 11:29:44;;;;;;;55.67;2.30;;;;;;;;;;5152978;27;20509;-69
2023/10/01 11:32:16;;;;;;;56.00;2.40;;;;;;;;;;5152762;27;20442;-69
2023/10/01 11:34:43;;;;;;;55.63;2.33;;;;;;;;;;5148270;27;20448;-68
2023/10/01 11:37:15;;;;;;;55.80;2.20;;;;;;;;;;5140561;27;20444;-68
2023/10/01 11:39:50;;;;;;;56.30;3.27;;;;;;;;;;5131966;27;20448;-68
2023/10/01 11:42:26;;;;;;;56.03;2.53;;;;;;;;;;5131706;27;20495;-69
2023/10/01 11:44:54;;;;;;;58.23;3.17;;;;;;;;;;5131974;27;20486;-68
2023/10/01 11:47:33;;;;;;;56.57;3.80;;;;;;;;;;5131986;27;20437;-68
2023/10/01 11:50:07;;;;;;;56.30;3.17;;;;;;;;;;5131437;27;20453;-69
2023/10/01 11:52:35;;;;;;;56.37;2.50;;;;;;;;;;5131877;27;20992;-68
2023/10/01 11:55:18;;;;;;;56.67;3.07;;;;;;;;;;5131745;27;20448;-69
2023/10/01 11:57:52;;;;;;;55.20;2.10;;;;;;;;;;5131685;27;20567;-70
2023/10/01 12:00:52;;;;;;;56.17;2.50;;;;;;;;;;5131564;27;20429;-69
2023/10/01 12:03:10;;;;;;;55.90;3.30;;;;;;;;;;5131597;27;20486;-69
2023/10/01 12:05:41;;;;;;;55.17;2.40;;;;;;;;;;5131859;27;20517;-69
2023/10/01 12:08:14;;;;;;;55.90;2.60;;;;;;;;;;5131250;27;20559;-69
2023/10/01 12:10:43;;;;;;;55.07;2.23;;;;;;;;;;5124449;27;20511;-70
2023/10/01 12:13:11;;;;;;;57.83;2.50;;;;;;;;;;5150203;27;20450;-71
2023/10/01 12:15:44;;;;;;;56.20;2.83;;;;;;;;;;5151602;27;20966;-70
2023/10/01 12:18:14;;;;;;;56.37;2.90;;;;;;;;;;5152140;27;20464;-70
2023/10/01 12:20:47;;;;;;;57.40;3.37;;;;;;;;;;5151946;27;20475;-69
2023/10/01 12:23:15;;;;;;;55.00;2.30;;;;;;;;;;5151871;27;20448;-68
2023/10/01 12:25:46;;;;;;;55.87;2.67;;;;;;;;;;5152203;27;20439;-70
2023/10/01 12:28:17;;;;;;;56.00;2.30;;;;;;;;;;5152003;27;20467;-70
2023/10/01 12:30:45;;;;;;;56.43;3.00;;;;;;;;;;5138823;27;20479;-68
2023/10/01 12:33:12;;;;;;;57.37;3.40;;;;;;;;;;5142853;27;20543;-70
2023/10/01 12:35:39;;;;;;;54.70;1.97;;;;;;;;;;5139346;27;20452;-69
2023/10/01 12:38:05;;;;;;;57.07;2.77;;;;;;;;;;5148628;27;20483;-70
2023/10/01 12:40:36;;;;;;;55.10;2.00;;;;;;;;;;5151146;27;20535;-69
2023/10/01 12:43:32;;;;;;;55.50;2.53;;;;;;;;;;5143089;27;20523;-70
2023/10/01 12:45:51;;;;;;;55.40;2.37;;;;;;;;;;5146893;27;20535;-69
2023/10/01 12:48:20;;;;;;;56.77;2.40;;;;;;;;;;5151305;27;20474;-70
2023/10/01 12:50:59;;;;;;;56.07;2.50;;;;;;;;;;5151562;27;20886;-70
2023/10/01 12:53:26;;;;;;;55.70;2.00;;;;;;;;;;5151792;27;20450;-68
2023/10/01 12:55:53;;;;;;;55.37;3.20;;;;;;;;;;5152107;27;20467;-69
2023/10/01 12:58:35;;;;;;;55.87;2.63;;;;;;;;;;5146682;27;20463;-69
2023/10/01 13:01:01;;;;;;;55.27;2.80;;;;;;;;;;5146623;27;20436;-70
2023/10/01 13:03:29;;;;;;;56.63;2.80;;;;;;;;;;5155329;27;20451;-70
2023/10/01 13:05:56;;;;;;;55.20;2.10;;;;;;;;;;5147195;27;20448;-70
2023/10/01 13:08:28;;;;;;;55.40;2.90;;;;;;;;;;5134296;27;20456;-68
2023/10/01 13:10:56;;;;;;;55.93;3.10;;;;;;;;;;5134354;27;20484;-69
2023/10/01 13:13:29;;;;;;;55.93;2.40;;;;;;;;;;5134575;27;20819;-69
2023/10/01 13:15:57;;;;;;;54.77;2.20;;;;;;;;;;5134813;27;20624;-69
2023/10/01 13:18:29;;;;;;;56.47;3.07;;;;;;;;;;5143348;27;20614;-69
2023/10/01 13:21:06;;;;;;;55.37;2.10;;;;;;;;;;5138746;27;20937;-69
2023/10/01 13:23:41;;;;;;;55.47;2.30;;;;;;;;;;5128522;27;20948;-68
2023/10/01 13:26:14;;;;;;;57.00;2.57;;;;;;;;;;5151701;27;20804;-68
2023/10/01 13:28:49;;;;;;;55.10;2.00;;;;;;;;;;5139915;27;20456;-69
2023/10/01 13:34:10;;;;;;;55.60;2.57;;;;;;;;;;5142433;27;20513;-71
2023/10/01 13:36:49;;;;;;;56.27;3.00;;;;;;;;;;5139242;27;20439;-70
2023/10/01 13:39:25;;;;;;;55.27;2.27;;;;;;;;;;5143852;27;20832;-71
2023/10/01 14:12:12;;;;;;;55.63;2.20;;;;;;;;;;5139782;27;20905;-69
2023/10/01 14:14:43;;;;;;;56.20;1.70;;;;;;;;;;5145385;27;20440;-70
2023/10/01 14:17:14;;;;;;;55.30;2.10;;;;;;;;;;5144215;27;20444;-69
2023/10/01 14:19:42;;;;;;;55.50;1.97;;;;;;;;;;5141689;27;20468;-69
2023/10/01 14:22:19;;;;;;;55.60;2.27;;;;;;;;;;5133491;27;20440;-69
2023/10/01 14:24:46;;;;;;;56.27;2.40;;;;;;;;;;5145463;27;20515;-69
2023/10/01 14:27:24;;;;;;;56.73;2.30;;;;;;;;;;5136556;27;20452;-69
2023/10/01 14:30:00;;;;;;;56.33;2.50;;;;;;;;;;5138325;27;20445;-69
2023/10/01 14:32:34;;;;;;;55.57;2.13;;;;;;;;;;5149860;27;20484;-68
2023/10/01 14:35:05;;;;;;;56.17;2.00;;;;;;;;;;5141196;27;20444;-69
2023/10/01 14:37:32;;;;;;;56.97;2.60;;;;;;;;;;5137149;27;20468;-69
2023/10/01 14:40:13;;;;;;;56.40;2.00;;;;;;;;;;5145071;27;20531;-69
2023/10/01 14:42:40;;;;;;;56.67;2.20;;;;;;;;;;5125487;27;20445;-69
2023/10/01 14:45:07;;;;;;;57.07;2.60;;;;;;;;;;5132803;27;20445;-69
2023/10/01 14:47:36;;;;;;;55.60;2.17;;;;;;;;;;5132725;27;20473;-69
2023/10/01 14:50:04;;;;;;;55.37;2.37;;;;;;;;;;5132639;27;20456;-70
2023/10/01 14:52:32;;;;;;;55.60;2.30;;;;;;;;;;5132682;27;20476;-69
2023/10/01 14:55:02;;;;;;;56.23;2.33;;;;;;;;;;5132748;27;20481;-69
2023/10/01 14:57:29;;;;;;;56.10;2.40;;;;;;;;;;5132612;27;20859;-69
2023/10/01 14:59:57;;;;;;;56.13;2.30;;;;;;;;;;5132679;27;20487;-68
2023/10/01 15:02:24;;;;;;;57.03;2.37;;;;;;;;;;5132863;27;20448;-68
2023/10/01 15:04:52;;;;;;;55.60;1.73;;;;;;;;;;5132758;27;20451;-68
2023/10/01 15:07:21;;;;;;;61.93;3.10;;;;;;;;;;5132355;27;20541;-68
2023/10/01 15:09:49;;;;;;;56.97;2.33;;;;;;;;;;5140800;27;20460;-68
2023/10/01 15:12:26;;;;;;;58.07;2.93;;;;;;;;;;5150741;27;21014;-68
2023/10/01 15:14:53;;;;;;;56.37;2.07;;;;;;;;;;5153282;27;20818;-68
2023/10/01 15:17:21;;;;;;;57.70;2.73;;;;;;;;;;5153292;27;20923;-68
2023/10/01 15:19:49;;;;;;;56.20;2.07;;;;;;;;;;5142794;27;20852;-69
2023/10/01 15:22:18;;;;;;;57.93;2.87;;;;;;;;;;5149643;27;20471;-68
2023/10/01 15:24:46;;;;;;;57.33;3.40;;;;;;;;;;5142206;27;20972;-69
2023/10/01 15:27:13;;;;;;;56.40;2.13;;;;;;;;;;5132249;27;20498;-69
2023/10/01 15:29:46;;;;;;;56.40;2.57;;;;;;;;;;5137289;27;20448;-68
2023/10/01 15:32:16;;;;;;;56.30;2.27;;;;;;;;;;5144114;27;20479;-68
2023/10/01 15:34:43;;;;;;;55.90;2.17;;;;;;;;;;5152582;27;20451;-69
2023/10/01 15:37:11;;;;;;;57.90;2.67;;;;;;;;;;5133024;27;20445;-70
2023/10/01 15:39:41;;;;;;;60.90;2.40;;;;;;;;;;5131685;27;20479;-69
2023/10/01 15:42:15;;;;;;;56.57;2.60;;;;;;;;;;5131266;27;20824;-69
2023/10/01 15:44:47;;;;;;;56.97;2.27;;;;;;;;;;5131760;27;20492;-69